createdAt,value
2023-05-07T00:01:22.776Z,12.95
2023-05-07T00:03:52.678Z,12.89
2023-05-07T00:06:23.436Z,12.83
2023-05-07T00:08:53.297Z,12.74
2023-05-07T00:11:23.144Z,12.68
2023-05-07T00:13:53.381Z,12.60
2023-05-07T00:16:24.161Z,12.54
2023-05-07T00:18:54.638Z,12.47
2023-05-07T00:21:27.126Z,12.41
2023-05-07T00:23:57.136Z,12.35
2023-05-07T00:26:27.241Z,12.27
2023-05-07T00:28:57.774Z,12.22
2023-05-07T00:31:27.583Z,12.15
2023-05-07T00:33:57.205Z,12.10
2023-05-07T00:36:27.335Z,12.05
2023-05-07T00:38:58.249Z,11.98
2023-05-07T00:41:28.368Z,11.94
2023-05-07T00:43:59.298Z,11.86
2023-05-07T00:46:30.901Z,11.81
2023-05-07T00:49:01.955Z,11.75
2023-05-07T00:51:33.751Z,11.69
2023-05-07T00:54:05.714Z,11.64
2023-05-07T00:56:34.601Z,11.58
2023-05-07T00:59:05.160Z,11.52
2023-05-07T01:01:35.459Z,11.47
2023-05-07T01:04:05.210Z,11.41
2023-05-07T01:06:36.715Z,11.37
2023-05-07T01:09:06.631Z,11.29
2023-05-07T01:11:37.561Z,11.23
2023-05-07T01:14:08.705Z,11.18
2023-05-07T01:16:41.863Z,11.11
2023-05-07T01:19:16.584Z,11.07
2023-05-07T01:21:49.015Z,11.02
2023-05-07T01:24:20.465Z,10.96
2023-05-07T01:26:50.768Z,10.90
2023-05-07T01:29:21.907Z,10.86
2023-05-07T01:31:54.167Z,10.80
2023-05-07T01:34:25.834Z,10.75
2023-05-07T01:36:58.339Z,10.70
2023-05-07T01:39:32.174Z,10.65
2023-05-07T01:42:02.534Z,10.61
2023-05-07T01:44:33.055Z,10.55
2023-05-07T01:47:04.605Z,10.51
2023-05-07T01:49:34.937Z,10.47
2023-05-07T01:52:06.002Z,10.43
2023-05-07T01:54:36.399Z,10.38
2023-05-07T01:57:07.555Z,10.34
2023-05-07T01:59:38.068Z,10.28
2023-05-07T02:02:08.078Z,10.25
2023-05-07T02:04:38.510Z,10.20
2023-05-07T02:07:08.564Z,10.16
2023-05-07T02:09:39.352Z,10.12
2023-05-07T02:12:09.887Z,10.08
2023-05-07T02:14:40.823Z,10.04
2023-05-07T02:17:11.552Z,9.99
2023-05-07T02:19:42.507Z,9.95
2023-05-07T02:22:13.019Z,9.92
2023-05-07T02:24:45.191Z,9.87
2023-05-07T02:27:15.283Z,9.84
2023-05-07T02:29:46.247Z,9.81
2023-05-07T02:32:16.809Z,9.78
2023-05-07T02:34:47.705Z,9.74
2023-05-07T02:37:18.240Z,9.69
2023-05-07T02:39:48.971Z,9.66
2023-05-07T02:42:19.704Z,9.63
2023-05-07T02:44:50.438Z,9.60
2023-05-07T02:47:21.169Z,9.57
2023-05-07T02:49:51.898Z,9.53
2023-05-07T02:52:22.838Z,9.51
2023-05-07T02:54:53.370Z,9.48
2023-05-07T02:57:23.271Z,9.46
2023-05-07T02:59:53.185Z,9.41
2023-05-07T03:02:24.137Z,9.39
2023-05-07T03:04:55.473Z,9.36
2023-05-07T03:07:26.373Z,9.33
2023-05-07T03:09:56.735Z,9.31
2023-05-07T03:12:27.880Z,9.29
2023-05-07T03:14:58.142Z,9.27
2023-05-07T03:17:28.145Z,9.24
2023-05-07T03:19:58.227Z,9.22
2023-05-07T03:22:28.766Z,9.21
2023-05-07T03:24:59.283Z,9.20
2023-05-07T03:27:29.600Z,9.18
2023-05-07T03:30:00.335Z,9.16
2023-05-07T03:32:31.512Z,9.16
2023-05-07T03:35:01.593Z,9.15
2023-05-07T03:37:31.719Z,9.14
2023-05-07T03:40:02.889Z,9.16
2023-05-07T03:42:35.876Z,9.15
2023-05-07T03:45:10.161Z,9.16
2023-05-07T03:47:41.452Z,9.17
2023-05-07T03:50:13.374Z,9.16
2023-05-07T03:52:43.272Z,9.17
2023-05-07T03:55:14.217Z,9.17
2023-05-07T03:57:46.176Z,9.21
2023-05-07T04:00:20.822Z,9.22
2023-05-07T04:02:51.116Z,9.25
2023-05-07T04:05:29.639Z,9.27
2023-05-07T04:08:03.866Z,9.31
2023-05-07T04:10:44.206Z,9.33
2023-05-07T04:13:14.846Z,9.37
2023-05-07T04:15:47.112Z,9.41
2023-05-07T04:18:18.072Z,9.45
2023-05-07T04:20:51.251Z,9.50
2023-05-07T04:23:22.201Z,9.57
2023-05-07T04:25:52.525Z,9.65
2023-05-07T04:28:43.907Z,9.74
2023-05-07T04:31:14.436Z,9.82
2023-05-07T04:33:45.580Z,9.93
2023-05-07T04:36:16.928Z,10.03
2023-05-07T04:38:52.576Z,10.15
2023-05-07T04:41:23.098Z,10.25
2023-05-07T04:43:54.041Z,10.38
2023-05-07T04:46:25.458Z,10.51
2023-05-07T04:48:55.908Z,10.64
2023-05-07T04:51:26.262Z,10.76
2023-05-07T04:53:57.367Z,10.88
2023-05-07T04:56:31.006Z,11.00
2023-05-07T04:59:01.750Z,11.13
2023-05-07T05:01:32.257Z,11.27
2023-05-07T05:04:03.141Z,11.41
2023-05-07T05:06:33.707Z,11.52
2023-05-07T05:09:05.578Z,11.64
2023-05-07T05:11:37.215Z,11.78
2023-05-07T05:14:08.356Z,11.89
2023-05-07T05:16:39.264Z,12.03
2023-05-07T05:19:09.417Z,12.17
2023-05-07T05:21:40.586Z,12.29
2023-05-07T05:24:12.309Z,12.45
2023-05-07T05:26:42.763Z,12.56
2023-05-07T05:29:13.822Z,12.65
2023-05-07T05:31:45.152Z,12.78
2023-05-07T05:34:15.246Z,12.88
2023-05-07T05:36:45.793Z,12.98
2023-05-07T05:39:18.557Z,13.09
2023-05-07T05:41:49.081Z,13.24
2023-05-07T05:44:20.658Z,13.42
2023-05-07T05:46:51.348Z,13.57
2023-05-07T05:49:22.309Z,13.75
2023-05-07T05:51:52.841Z,13.88
2023-05-07T05:54:24.636Z,13.98
2023-05-07T05:56:55.121Z,14.12
2023-05-07T05:59:26.036Z,14.26
2023-05-07T06:01:56.411Z,14.36
2023-05-07T06:04:26.717Z,14.46
2023-05-07T06:06:57.434Z,14.59
2023-05-07T06:09:28.170Z,14.74
2023-05-07T06:12:00.687Z,14.87
2023-05-07T06:14:31.885Z,15.01
2023-05-07T06:17:02.591Z,15.13
2023-05-07T06:19:32.529Z,15.25
2023-05-07T06:22:03.038Z,15.41
2023-05-07T06:24:33.998Z,15.57
2023-05-07T06:27:04.518Z,15.72
2023-05-07T06:29:35.242Z,15.87
2023-05-07T06:32:11.233Z,15.97
2023-05-07T06:34:43.618Z,16.10
2023-05-07T06:37:14.003Z,16.24
2023-05-07T06:39:55.482Z,16.41
2023-05-07T06:42:27.137Z,16.58
2023-05-07T06:45:00.748Z,16.73
2023-05-07T06:47:33.160Z,16.89
2023-05-07T06:50:03.671Z,17.05
2023-05-07T06:52:36.019Z,17.18
2023-05-07T06:55:09.814Z,17.32
2023-05-07T06:57:40.964Z,17.44
2023-05-07T07:00:16.052Z,17.55
2023-05-07T07:02:53.516Z,17.66
2023-05-07T07:05:24.833Z,17.77
2023-05-07T07:07:55.384Z,17.88
2023-05-07T07:10:26.110Z,17.95
2023-05-07T07:12:57.052Z,18.07
2023-05-07T07:15:28.373Z,18.18
2023-05-07T07:17:59.333Z,18.27
2023-05-07T07:20:30.453Z,18.39
2023-05-07T07:23:00.972Z,18.48
2023-05-07T07:25:31.505Z,18.57
2023-05-07T07:28:01.621Z,18.64
2023-05-07T07:30:32.373Z,18.71
2023-05-07T07:33:03.960Z,18.76
2023-05-07T07:35:36.893Z,18.84
2023-05-07T07:38:08.883Z,18.92
2023-05-07T07:40:39.186Z,18.99
2023-05-07T07:43:09.871Z,19.04
2023-05-07T07:45:41.262Z,19.09
2023-05-07T07:48:11.435Z,19.18
2023-05-07T07:50:45.615Z,19.32
2023-05-07T07:53:18.994Z,19.46
2023-05-07T07:55:50.128Z,19.60
2023-05-07T07:58:22.829Z,19.76
2023-05-07T08:00:53.227Z,19.90
2023-05-07T08:03:24.467Z,20.04
2023-05-07T08:05:57.977Z,20.12
2023-05-07T08:08:28.903Z,20.25
2023-05-07T08:10:59.239Z,20.40
2023-05-07T08:13:33.449Z,20.54
2023-05-07T08:16:05.413Z,20.65
2023-05-07T08:18:36.347Z,20.80
2023-05-07T08:21:07.296Z,20.94
2023-05-07T08:23:38.022Z,21.08
2023-05-07T08:26:10.190Z,21.22
2023-05-07T08:28:41.332Z,21.33
2023-05-07T08:31:12.150Z,21.45
2023-05-07T08:33:44.020Z,21.53
2023-05-07T08:36:14.360Z,21.67
2023-05-07T08:38:46.316Z,21.79
2023-05-07T08:41:16.819Z,21.92
2023-05-07T08:43:51.275Z,22.02
2023-05-07T08:46:23.891Z,22.11
2023-05-07T08:48:57.841Z,22.22
2023-05-07T08:51:28.785Z,22.33
2023-05-07T08:53:59.512Z,22.48
2023-05-07T08:56:33.521Z,22.59
2023-05-07T08:59:04.343Z,22.66
2023-05-07T09:01:36.543Z,22.77
2023-05-07T09:04:09.859Z,22.86
2023-05-07T09:06:42.610Z,22.97
2023-05-07T09:09:18.498Z,23.06
2023-05-07T09:11:48.977Z,23.17
2023-05-07T09:14:24.021Z,23.28
2023-05-07T09:16:55.785Z,23.39
2023-05-07T09:19:27.312Z,23.49
2023-05-07T09:22:03.098Z,23.61
2023-05-07T09:24:38.632Z,23.75
2023-05-07T09:27:13.719Z,23.87
2023-05-07T09:29:45.817Z,23.94
2023-05-07T09:32:17.378Z,24.02
2023-05-07T09:34:47.723Z,24.11
2023-05-07T09:37:18.426Z,24.21
2023-05-07T09:39:50.178Z,24.30
2023-05-07T09:42:27.594Z,24.37
2023-05-07T09:45:01.898Z,24.44
2023-05-07T09:47:40.150Z,24.53
2023-05-07T09:50:13.765Z,24.59
2023-05-07T09:52:46.806Z,24.70
2023-05-07T09:55:19.160Z,24.77
2023-05-07T09:57:48.499Z,24.82
2023-05-07T10:00:22.003Z,24.86
2023-05-07T10:02:54.094Z,24.94
2023-05-07T10:05:33.971Z,25.02
2023-05-07T10:08:05.942Z,25.08
2023-05-07T10:10:39.124Z,25.16
2023-05-07T10:13:12.157Z,25.19
2023-05-07T10:15:45.707Z,25.24
2023-05-07T10:18:16.496Z,25.29
2023-05-07T10:20:50.236Z,25.23
2023-05-07T10:23:24.945Z,25.26
2023-05-07T10:26:01.068Z,25.31
2023-05-07T10:28:38.503Z,25.41
2023-05-07T10:31:25.145Z,25.50
2023-05-07T10:33:57.879Z,25.55
2023-05-07T10:36:29.252Z,25.64
2023-05-07T10:39:00.003Z,25.69
2023-05-07T10:41:30.920Z,25.74
2023-05-07T10:44:02.882Z,25.80
2023-05-07T10:46:36.118Z,25.86
2023-05-07T10:49:15.610Z,25.90
2023-05-07T10:52:16.635Z,25.93
2023-05-07T10:55:26.024Z,26.03
2023-05-07T10:58:32.395Z,26.10
2023-05-07T11:01:54.457Z,26.19
2023-05-07T11:04:35.398Z,26.30
2023-05-07T11:07:32.956Z,26.35
2023-05-07T11:10:09.759Z,26.41
2023-05-07T11:12:55.572Z,26.45
2023-05-07T11:15:49.626Z,26.47
2023-05-07T11:18:49.957Z,26.50
2023-05-07T11:21:38.244Z,26.56
2023-05-07T11:24:40.891Z,26.55
2023-05-07T11:27:11.342Z,26.58
2023-05-07T11:29:48.020Z,26.62
2023-05-07T11:32:24.689Z,26.65
2023-05-07T11:34:55.365Z,26.65
2023-05-07T11:37:29.027Z,26.67
2023-05-07T11:40:08.578Z,26.68
2023-05-07T11:42:39.740Z,26.72
2023-05-07T11:45:12.537Z,26.76
2023-05-07T11:47:44.061Z,26.80
2023-05-07T11:50:14.777Z,26.84
2023-05-07T11:52:53.494Z,26.84
2023-05-07T11:55:25.657Z,26.87
2023-05-07T11:57:56.193Z,26.90
2023-05-07T12:00:26.494Z,26.96
2023-05-07T12:02:57.009Z,27.00
2023-05-07T12:05:27.779Z,27.00
2023-05-07T12:07:59.739Z,27.04
2023-05-07T12:10:29.855Z,27.05
2023-05-07T12:13:00.633Z,27.05
2023-05-07T12:15:31.315Z,27.11
2023-05-07T12:18:01.278Z,27.14
2023-05-07T12:20:31.146Z,27.20
2023-05-07T12:23:02.698Z,27.27
2023-05-07T12:25:35.341Z,27.30
2023-05-07T12:28:06.619Z,27.35
2023-05-07T12:30:40.213Z,27.33
2023-05-07T12:33:10.949Z,27.34
2023-05-07T12:35:43.070Z,27.37
2023-05-07T12:38:15.515Z,27.45
2023-05-07T12:40:51.354Z,27.47
2023-05-07T12:43:25.309Z,27.55
2023-05-07T12:45:57.971Z,27.62
2023-05-07T12:48:28.092Z,27.69
2023-05-07T12:51:00.623Z,27.72
2023-05-07T12:53:31.776Z,27.76
2023-05-07T12:56:02.339Z,27.81
2023-05-07T12:58:34.684Z,27.81
2023-05-07T13:01:07.847Z,27.77
2023-05-07T13:03:40.040Z,27.71
2023-05-07T13:06:12.803Z,27.61
2023-05-07T13:08:43.951Z,27.55
2023-05-07T13:11:14.890Z,27.47
2023-05-07T13:13:45.409Z,27.48
2023-05-07T13:16:16.200Z,27.49
2023-05-07T13:18:46.916Z,27.48
2023-05-07T13:21:17.618Z,27.48
2023-05-07T13:23:48.552Z,27.41
2023-05-07T13:26:26.278Z,27.42
2023-05-07T13:28:57.808Z,27.43
2023-05-07T13:31:28.356Z,27.46
2023-05-07T13:33:58.397Z,27.45
2023-05-07T13:36:29.173Z,27.43
2023-05-07T13:39:00.737Z,27.42
2023-05-07T13:41:31.873Z,27.39
2023-05-07T13:44:02.192Z,27.37
2023-05-07T13:46:32.425Z,27.35
2023-05-07T13:49:03.042Z,27.32
2023-05-07T13:51:33.568Z,27.27
2023-05-07T13:54:03.699Z,27.22
2023-05-07T13:56:34.211Z,27.16
2023-05-07T13:59:04.543Z,27.13
2023-05-07T14:01:34.928Z,27.12
2023-05-07T14:04:06.435Z,27.16
2023-05-07T14:06:36.890Z,27.13
2023-05-07T14:09:07.064Z,27.13
2023-05-07T14:11:37.585Z,27.08
2023-05-07T14:14:07.708Z,27.13
2023-05-07T14:16:38.666Z,27.15
2023-05-07T14:19:08.815Z,27.13
2023-05-07T14:21:39.088Z,27.11
2023-05-07T14:24:10.169Z,27.06
2023-05-07T14:26:40.819Z,27.02
2023-05-07T14:29:11.488Z,26.99
2023-05-07T14:31:41.953Z,26.98
2023-05-07T14:34:11.878Z,26.91
2023-05-07T14:36:41.851Z,26.84
2023-05-07T14:39:13.197Z,26.76
2023-05-07T14:41:43.514Z,26.71
2023-05-07T14:44:13.431Z,26.61
2023-05-07T14:46:44.146Z,26.54
2023-05-07T14:49:17.567Z,26.49
2023-05-07T14:51:49.117Z,26.45
2023-05-07T14:54:19.842Z,26.38
2023-05-07T14:56:50.022Z,26.33
2023-05-07T14:59:21.657Z,26.24
2023-05-07T15:01:51.905Z,26.19
2023-05-07T15:04:22.783Z,26.12
2023-05-07T15:06:54.341Z,26.08
2023-05-07T15:09:24.658Z,26.01
2023-05-07T15:11:56.420Z,25.93
2023-05-07T15:14:26.943Z,25.88
2023-05-07T15:16:57.067Z,25.83
2023-05-07T15:19:29.836Z,25.74
2023-05-07T15:22:02.970Z,25.68
2023-05-07T15:24:33.771Z,25.64
2023-05-07T15:27:03.956Z,25.59
2023-05-07T15:29:34.414Z,25.54
2023-05-07T15:32:05.470Z,25.47
2023-05-07T15:34:36.493Z,25.43
2023-05-07T15:37:06.609Z,25.38
2023-05-07T15:39:37.179Z,25.36
2023-05-07T15:42:07.456Z,25.37
2023-05-07T15:44:38.697Z,25.40
2023-05-07T15:47:08.727Z,25.39
2023-05-07T15:49:38.630Z,25.36
2023-05-07T15:52:11.017Z,25.30
2023-05-07T15:54:41.738Z,25.24
2023-05-07T15:57:12.495Z,25.21
2023-05-07T15:59:43.209Z,25.14
2023-05-07T16:02:14.261Z,25.08
2023-05-07T16:04:45.084Z,25.02
2023-05-07T16:07:15.816Z,24.93
2023-05-07T16:09:46.957Z,24.85
2023-05-07T16:12:17.693Z,24.79
2023-05-07T16:14:48.278Z,24.72
2023-05-07T16:17:18.839Z,24.63
2023-05-07T16:19:50.995Z,24.53
2023-05-07T16:22:21.645Z,24.45
2023-05-07T16:24:51.766Z,24.35
2023-05-07T16:27:23.094Z,24.24
2023-05-07T16:29:53.640Z,24.17
2023-05-07T16:32:24.201Z,24.08
2023-05-07T16:34:54.038Z,23.99
2023-05-07T16:37:25.011Z,23.88
2023-05-07T16:39:56.797Z,23.78
2023-05-07T16:42:26.276Z,23.64
2023-05-07T16:44:56.600Z,23.47
2023-05-07T16:47:26.167Z,23.33
2023-05-07T16:49:56.600Z,23.24
2023-05-07T16:52:26.955Z,23.13
2023-05-07T16:55:00.275Z,23.05
2023-05-07T16:57:31.010Z,22.96
2023-05-07T17:00:01.207Z,22.88
2023-05-07T17:02:31.612Z,22.80
2023-05-07T17:05:02.037Z,22.70
2023-05-07T17:07:32.379Z,22.64
2023-05-07T17:10:03.912Z,22.55
2023-05-07T17:12:35.469Z,22.49
2023-05-07T17:15:09.733Z,22.41
2023-05-07T17:17:40.667Z,22.32
2023-05-07T17:20:14.053Z,22.23
2023-05-07T17:22:44.588Z,22.15
2023-05-07T17:25:15.226Z,22.05
2023-05-07T17:27:45.620Z,21.96
2023-05-07T17:30:17.169Z,21.89
2023-05-07T17:32:48.370Z,21.80
2023-05-07T17:35:18.016Z,21.71
2023-05-07T17:37:52.028Z,21.61
2023-05-07T17:40:22.966Z,21.53
2023-05-07T17:42:55.315Z,21.45
2023-05-07T17:45:26.318Z,21.37
2023-05-07T17:47:56.586Z,21.29
2023-05-07T17:50:26.717Z,21.22
2023-05-07T17:52:57.460Z,21.13
2023-05-07T17:55:27.968Z,21.02
2023-05-07T17:57:57.886Z,20.91
2023-05-07T18:00:29.039Z,20.81
2023-05-07T18:02:59.925Z,20.70
2023-05-07T18:05:30.751Z,20.56
2023-05-07T18:08:01.026Z,20.46
2023-05-07T18:10:31.169Z,20.37
2023-05-07T18:13:03.579Z,20.27
2023-05-07T18:15:36.696Z,20.15
2023-05-07T18:18:07.477Z,20.06
2023-05-07T18:20:37.366Z,19.96
2023-05-07T18:23:08.580Z,19.87
2023-05-07T18:25:39.221Z,19.80
2023-05-07T18:28:09.754Z,19.70
2023-05-07T18:30:40.480Z,19.64
2023-05-07T18:33:11.464Z,19.55
2023-05-07T18:35:41.748Z,19.47
2023-05-07T18:38:12.459Z,19.42
2023-05-07T18:40:43.624Z,19.35
2023-05-07T18:43:16.190Z,19.28
2023-05-07T18:45:47.730Z,19.22
2023-05-07T18:48:18.069Z,19.16
2023-05-07T18:50:48.393Z,19.12
2023-05-07T18:53:18.722Z,19.07
2023-05-07T18:55:51.941Z,19.01
2023-05-07T18:58:22.661Z,18.97
2023-05-07T19:00:53.443Z,18.94
2023-05-07T19:03:24.150Z,18.90
2023-05-07T19:05:55.361Z,18.87
2023-05-07T19:08:25.979Z,18.84
2023-05-07T19:10:57.545Z,18.81
2023-05-07T19:13:27.909Z,18.79
2023-05-07T19:15:57.992Z,18.75
2023-05-07T19:18:29.328Z,18.72
2023-05-07T19:20:59.857Z,18.70
2023-05-07T19:23:30.267Z,18.67
2023-05-07T19:26:00.507Z,18.66
2023-05-07T19:28:30.367Z,18.63
2023-05-07T19:31:00.327Z,18.60
2023-05-07T19:33:30.852Z,18.59
2023-05-07T19:36:01.794Z,18.56
2023-05-07T19:38:32.768Z,18.54
2023-05-07T19:41:03.454Z,18.53
2023-05-07T19:43:37.617Z,18.51
2023-05-07T19:46:08.108Z,18.48
2023-05-07T19:48:38.523Z,18.45
2023-05-07T19:51:08.208Z,18.43
2023-05-07T19:53:38.454Z,18.40
2023-05-07T19:56:10.515Z,18.37
2023-05-07T19:58:41.250Z,18.35
2023-05-07T20:01:11.826Z,18.28
2023-05-07T20:03:42.991Z,18.24
2023-05-07T20:06:13.670Z,18.15
2023-05-07T20:08:44.596Z,18.05
2023-05-07T20:11:14.916Z,17.96
2023-05-07T20:13:45.071Z,17.89
2023-05-07T20:16:15.624Z,17.83
2023-05-07T20:18:46.091Z,17.73
2023-05-07T20:21:16.207Z,17.67
2023-05-07T20:23:46.458Z,17.62
2023-05-07T20:26:17.678Z,17.55
2023-05-07T20:28:48.410Z,17.50
2023-05-07T20:31:20.099Z,17.47
2023-05-07T20:33:50.228Z,17.40
2023-05-07T20:36:20.409Z,17.35
2023-05-07T20:38:49.915Z,17.30
2023-05-07T20:41:21.405Z,17.23
2023-05-07T20:43:51.766Z,17.17
2023-05-07T20:46:22.434Z,17.11
2023-05-07T20:48:53.860Z,17.04
2023-05-07T20:51:23.978Z,16.98
2023-05-07T20:53:53.710Z,16.94
2023-05-07T20:56:23.806Z,16.87
2023-05-07T20:58:53.922Z,16.82
2023-05-07T21:01:24.130Z,16.77
2023-05-07T21:03:54.830Z,16.72
2023-05-07T21:06:25.310Z,16.67
2023-05-07T21:08:55.624Z,16.62
2023-05-07T21:11:26.156Z,16.57
2023-05-07T21:13:56.495Z,16.52
2023-05-07T21:16:26.657Z,16.48
2023-05-07T21:18:57.121Z,16.43
2023-05-07T21:21:27.647Z,16.38
2023-05-07T21:23:57.571Z,16.34
2023-05-07T21:26:27.887Z,16.28
2023-05-07T21:28:58.212Z,16.23
2023-05-07T21:31:28.537Z,16.19
2023-05-07T21:33:58.854Z,16.17
2023-05-07T21:36:29.182Z,16.12
2023-05-07T21:38:59.908Z,16.08
2023-05-07T21:41:30.856Z,16.03
2023-05-07T21:44:02.241Z,15.97
2023-05-07T21:46:31.891Z,15.91
2023-05-07T21:49:01.820Z,15.90
2023-05-07T21:51:33.649Z,15.84
2023-05-07T21:54:04.514Z,15.81
2023-05-07T21:56:34.838Z,15.76
2023-05-07T21:59:04.949Z,15.70
2023-05-07T22:01:34.921Z,15.63
2023-05-07T22:04:06.151Z,15.58
2023-05-07T22:06:35.924Z,15.54
2023-05-07T22:09:07.473Z,15.48
2023-05-07T22:11:37.526Z,15.42
2023-05-07T22:14:07.921Z,15.37
2023-05-07T22:16:39.527Z,15.31
2023-05-07T22:19:10.193Z,15.25
2023-05-07T22:21:41.090Z,15.20
2023-05-07T22:24:12.073Z,15.13
2023-05-07T22:26:44.651Z,15.10
2023-05-07T22:29:14.565Z,15.04
2023-05-07T22:31:45.324Z,15.00
2023-05-07T22:34:16.034Z,14.96
2023-05-07T22:36:46.549Z,14.92
2023-05-07T22:39:16.807Z,14.87
2023-05-07T22:41:47.403Z,14.84
2023-05-07T22:44:18.076Z,14.79
2023-05-07T22:46:49.492Z,14.76
2023-05-07T22:49:19.401Z,14.72
2023-05-07T22:51:49.515Z,14.68
2023-05-07T22:54:20.047Z,14.64
2023-05-07T22:56:52.301Z,14.59
2023-05-07T22:59:21.917Z,14.54
2023-05-07T23:01:51.628Z,14.50
2023-05-07T23:04:21.756Z,14.46
2023-05-07T23:06:53.381Z,14.42
2023-05-07T23:09:24.037Z,14.38
2023-05-07T23:11:54.763Z,14.33
2023-05-07T23:14:25.235Z,14.28
2023-05-07T23:16:55.020Z,14.26
2023-05-07T23:19:25.205Z,14.22
2023-05-07T23:21:55.852Z,14.16
2023-05-07T23:24:26.179Z,14.12
2023-05-07T23:26:56.505Z,14.09
2023-05-07T23:29:27.235Z,14.06
2023-05-07T23:31:57.143Z,14.03
2023-05-07T23:34:27.267Z,13.98
2023-05-07T23:36:57.794Z,13.94
2023-05-07T23:39:27.702Z,13.88
2023-05-07T23:41:58.433Z,13.80
2023-05-07T23:44:28.556Z,13.71
2023-05-07T23:46:59.088Z,13.61
2023-05-07T23:49:30.034Z,13.52
2023-05-07T23:52:00.479Z,13.45
2023-05-07T23:54:30.459Z,13.41
2023-05-07T23:57:02.917Z,13.42
2023-05-07T23:59:31.545Z,13.41
